This is the latest recevied weather packets stored in our database for station/object RUSSARO. If no packets are shown the sender has not sent any weather packets the latest 1 day(s).
| Time | Temp. | Humidity | Pressure | Rain* | Wind** | Luminosity | Snow |
|---|---|---|---|---|---|---|---|
| 1778071643 | 8.33° C | 63% | 1015.1 hPa | 0 mm | - | - | - |
| 1778070443 | 8.33° C | 69% | 1015.2 hPa | 0 mm | - | - | - |
| 1778065643 | 7.78° C | 73% | 1015.1 hPa | 0 mm | - | - | - |
| 1778064444 | 7.78° C | 74% | 1015.2 hPa | 0 mm | - | - | - |
| 1778062045 | 7.22° C | 76% | 1015 hPa | 0 mm | - | - | - |
| 1778060845 | 7.22° C | 79% | 1014.9 hPa | 0 mm | - | - | - |
| 1778058444 | 8.89° C | 64% | 1014.4 hPa | 0 mm | - | - | - |
| 1778054844 | 7.78° C | 70% | 1014.2 hPa | 0 mm | - | - | - |
| 1778053644 | 7.22° C | 77% | 1014.2 hPa | 0 mm | - | - | - |
| 1778052445 | 7.78° C | 78% | 1014 hPa | 0 mm | - | - | - |
| 1778051244 | 7.22° C | 78% | 1013.8 hPa | 0 mm | - | - | - |
| 1778050044 | 7.22° C | 76% | 1013.6 hPa | 0 mm | - | - | - |
| 1778048844 | 6.67° C | 74% | 1013.5 hPa | 0 mm | - | - | - |
| 1778047644 | 7.22° C | 74% | 1013.4 hPa | 0 mm | - | - | - |
| 1778046443 | 6.67° C | 77% | 1013.2 hPa | 0 mm | - | - | - |
| 1778044043 | 6.11° C | 73% | 1012.9 hPa | 0 mm | - | - | - |
| 1778042844 | 6.11° C | 71% | 1012.6 hPa | 0 mm | - | - | - |
| 1778040443 | 5.56° C | 75% | 1012.2 hPa | 0 mm | - | - | - |
| 1778039244 | 5.56° C | 75% | 1012 hPa | 0 mm | - | - | - |
| 1778038043 | 4.44° C | 80% | 1011.8 hPa | 0 mm | - | - | - |
| 1778036843 | 4.44° C | 83% | 1011.6 hPa | 0 mm | - | - | - |
| 1778035643 | 3.89° C | 87% | 1011.4 hPa | 0 mm | - | - | - |
| 1778034443 | 3.89° C | 97% | 1011.4 hPa | 0 mm | - | - | - |
| 1778033243 | 3.89° C | 97% | 1011.2 hPa | 0 mm | - | - | - |
| 1778032043 | 3.89° C | 97% | 1011 hPa | 0 mm | - | - | - |
* Rain latest hour (hover to see other rain measurements)
** Current wind speed in m/s (hover to see current wind gust speed)